createdAt,value
2017-11-09T00:02:01.820Z,28.47
2017-11-09T00:04:35.055Z,28.07
2017-11-09T00:07:03.381Z,26.83
2017-11-09T00:09:30.913Z,27.95
2017-11-09T00:11:58.453Z,26.67
2017-11-09T00:14:26.052Z,28.00
2017-11-09T00:16:53.592Z,29.00
2017-11-09T00:19:21.128Z,30.07
2017-11-09T00:21:49.465Z,29.73
2017-11-09T00:24:17.000Z,31.00
2017-11-09T00:26:44.532Z,29.77
2017-11-09T00:29:12.617Z,29.57
2017-11-09T00:31:40.156Z,30.23
2017-11-09T00:34:08.465Z,29.40
2017-11-09T00:36:36.056Z,29.03
2017-11-09T00:39:03.592Z,30.23
2017-11-09T00:41:31.143Z,30.02
2017-11-09T00:43:58.709Z,31.30
2017-11-09T00:46:26.240Z,31.30
2017-11-09T00:48:53.772Z,31.33
2017-11-09T00:51:21.345Z,30.33
2017-11-09T00:53:49.653Z,30.77
2017-11-09T00:56:17.183Z,30.23
2017-11-09T00:58:45.532Z,30.90
2017-11-09T01:01:24.842Z,29.70
2017-11-09T01:06:28.584Z,28.60
2017-11-09T01:08:56.120Z,28.70
2017-11-09T01:11:23.647Z,28.55
2017-11-09T01:13:52.002Z,27.93
2017-11-09T01:16:19.544Z,26.77
2017-11-09T01:18:47.079Z,27.60
2017-11-09T01:21:17.215Z,25.80
2017-11-09T01:23:44.751Z,25.30
2017-11-09T01:26:12.304Z,23.50
2017-11-09T01:28:39.864Z,22.80
2017-11-09T01:31:07.836Z,23.80
2017-11-09T01:33:35.385Z,22.55
2017-11-09T01:36:02.969Z,22.83
2017-11-09T01:38:30.509Z,23.60
2017-11-09T01:40:58.056Z,22.23
2017-11-09T01:43:25.624Z,26.13
2017-11-09T01:45:53.164Z,24.30
2017-11-09T01:48:20.692Z,23.37
2017-11-09T01:50:48.257Z,23.20
2017-11-09T01:53:16.461Z,22.95
2017-11-09T01:55:44.759Z,23.10
2017-11-09T01:58:12.356Z,21.93
2017-11-09T02:00:39.893Z,20.30
2017-11-09T02:03:07.421Z,23.17
2017-11-09T02:05:35.829Z,22.80
2017-11-09T02:08:03.372Z,23.95
2017-11-09T02:10:31.676Z,23.07
2017-11-09T02:12:59.235Z,23.60
2017-11-09T02:15:26.767Z,24.00
2017-11-09T02:17:54.291Z,23.93
2017-11-09T02:20:21.880Z,24.33
2017-11-09T02:22:49.412Z,24.77
2017-11-09T02:25:16.948Z,25.00
2017-11-09T02:27:44.511Z,22.30
2017-11-09T02:30:12.036Z,22.13
2017-11-09T02:32:39.684Z,21.70
2017-11-09T02:35:08.029Z,22.53
2017-11-09T02:37:35.556Z,22.90
2017-11-09T02:40:03.088Z,24.33
2017-11-09T02:42:30.698Z,25.37
2017-11-09T02:44:58.232Z,25.00
2017-11-09T02:47:25.756Z,25.17
2017-11-09T02:49:54.076Z,24.87
2017-11-09T02:52:22.376Z,25.40
2017-11-09T02:54:49.910Z,24.33
2017-11-09T02:57:17.473Z,26.40
2017-11-09T02:59:45.016Z,23.30
2017-11-09T03:02:12.557Z,28.93
2017-11-09T03:04:40.912Z,25.40
2017-11-09T03:07:08.447Z,26.62
2017-11-09T03:09:35.977Z,26.20
2017-11-09T03:12:03.537Z,28.00
2017-11-09T03:14:31.067Z,25.40
2017-11-09T03:16:59.365Z,27.93
2017-11-09T03:19:26.915Z,26.00
2017-11-09T03:21:54.453Z,25.65
2017-11-09T03:24:22.753Z,27.73
2017-11-09T03:26:50.777Z,25.90
2017-11-09T03:29:18.308Z,26.67
2017-11-09T03:31:45.840Z,26.87
2017-11-09T03:34:14.858Z,26.35
2017-11-09T03:36:42.413Z,27.08
2017-11-09T03:39:09.946Z,25.93
2017-11-09T03:41:38.277Z,27.87
2017-11-09T03:44:05.811Z,27.00
2017-11-09T03:46:33.349Z,27.13
2017-11-09T03:49:00.931Z,27.60
2017-11-09T03:51:28.468Z,26.43
2017-11-09T03:53:56.764Z,25.57
2017-11-09T03:56:24.320Z,25.65
2017-11-09T03:58:51.857Z,26.07
2017-11-09T04:01:19.400Z,26.25
2017-11-09T04:03:46.974Z,27.63
2017-11-09T04:06:24.609Z,24.92
2017-11-09T04:13:04.003Z,28.60
2017-11-09T04:15:31.539Z,25.97
2017-11-09T04:17:59.085Z,26.57
2017-11-09T04:20:26.637Z,28.90
2017-11-09T04:22:54.171Z,28.43
2017-11-09T04:25:21.702Z,27.70
2017-11-09T04:27:49.264Z,27.33
2017-11-09T04:30:16.792Z,27.10
2017-11-09T04:32:44.326Z,27.33
2017-11-09T04:35:12.569Z,26.60
2017-11-09T04:37:40.105Z,27.60
2017-11-09T04:40:07.635Z,28.40
2017-11-09T04:42:35.199Z,29.10
2017-11-09T04:45:02.728Z,26.90
2017-11-09T04:47:31.023Z,28.47
2017-11-09T04:49:58.585Z,29.87
2017-11-09T04:52:26.121Z,32.43
2017-11-09T04:54:53.657Z,30.40
2017-11-09T04:57:21.252Z,28.53
2017-11-09T04:59:49.553Z,28.13
2017-11-09T05:02:17.086Z,32.57
2017-11-09T05:04:45.421Z,35.57
2017-11-09T05:07:14.551Z,37.45
2017-11-09T05:09:42.081Z,42.33
2017-11-09T05:12:09.680Z,41.57
2017-11-09T05:14:37.972Z,41.77
2017-11-09T05:17:05.513Z,35.20
2017-11-09T05:19:33.864Z,32.17
2017-11-09T05:22:01.396Z,31.37
2017-11-09T05:24:28.933Z,27.93
2017-11-09T05:26:56.496Z,31.40
2017-11-09T05:29:24.033Z,39.10
2017-11-09T05:31:52.341Z,34.60
2017-11-09T05:34:19.913Z,31.83
2017-11-09T05:36:47.838Z,27.58
2017-11-09T05:39:17.165Z,27.50
2017-11-09T05:41:44.748Z,29.93
2017-11-09T05:44:12.281Z,28.00
2017-11-09T05:46:39.821Z,33.67
2017-11-09T05:49:07.382Z,31.83
2017-11-09T05:51:34.924Z,30.67
2017-11-09T05:54:02.455Z,31.10
2017-11-09T05:56:30.017Z,30.80
2017-11-09T05:58:57.549Z,31.23
2017-11-09T06:01:25.080Z,28.67
2017-11-09T06:03:52.666Z,28.20
2017-11-09T06:06:20.205Z,30.35
2017-11-09T06:08:48.501Z,29.00
2017-11-09T06:11:17.200Z,32.40
2017-11-09T06:13:44.737Z,30.70
2017-11-09T06:16:12.272Z,29.07
2017-11-09T06:18:39.833Z,27.73
2017-11-09T06:21:08.137Z,29.80
2017-11-09T06:23:35.677Z,27.90
2017-11-09T06:26:04.020Z,26.73
2017-11-09T06:28:31.553Z,26.60
2017-11-09T06:30:59.858Z,28.10
2017-11-09T06:33:27.444Z,26.83
2017-11-09T06:35:55.743Z,28.50
2017-11-09T06:38:23.700Z,29.73
2017-11-09T06:40:51.269Z,28.23
2017-11-09T06:43:18.804Z,30.43
2017-11-09T06:45:47.114Z,30.80
2017-11-09T06:48:16.457Z,31.87
2017-11-09T06:50:43.997Z,34.10
2017-11-09T06:53:11.535Z,31.83
2017-11-09T06:55:39.088Z,26.23
2017-11-09T06:58:06.628Z,25.73
2017-11-09T07:00:34.932Z,24.95
2017-11-09T07:03:02.500Z,24.48
2017-11-09T07:05:30.056Z,25.20
2017-11-09T07:07:57.587Z,26.53
2017-11-09T07:10:25.181Z,25.07
2017-11-09T07:12:52.726Z,29.10
2017-11-09T07:15:20.264Z,28.70
2017-11-09T07:17:47.828Z,28.73
2017-11-09T07:20:16.453Z,29.17
2017-11-09T07:22:44.000Z,29.23
2017-11-09T07:25:11.616Z,33.13
2017-11-09T07:27:39.153Z,33.37
2017-11-09T07:30:07.469Z,32.40
2017-11-09T07:32:35.097Z,27.83
2017-11-09T07:35:02.652Z,29.57
2017-11-09T07:37:30.956Z,28.50
2017-11-09T07:39:58.928Z,27.92
2017-11-09T07:42:26.690Z,30.97
2017-11-09T07:44:54.233Z,28.20
2017-11-09T07:47:21.853Z,28.40
2017-11-09T07:49:49.533Z,27.73
2017-11-09T07:52:17.873Z,25.90
2017-11-09T07:54:45.878Z,27.43
2017-11-09T07:57:24.649Z,27.45
2017-11-09T08:07:25.996Z,26.60
2017-11-09T08:09:53.529Z,26.75
2017-11-09T08:12:21.078Z,26.50
2017-11-09T08:14:48.658Z,26.13
2017-11-09T08:17:16.742Z,25.00
2017-11-09T08:19:44.290Z,27.03
2017-11-09T08:22:11.900Z,27.10
2017-11-09T08:24:39.905Z,27.92
2017-11-09T08:27:11.765Z,27.67
2017-11-09T08:29:40.662Z,27.50
2017-11-09T08:32:09.365Z,26.23
2017-11-09T08:34:36.942Z,27.90
2017-11-09T08:37:04.532Z,27.05
2017-11-09T08:39:32.080Z,27.00
2017-11-09T08:41:59.977Z,26.67
2017-11-09T08:44:27.539Z,26.37
2017-11-09T08:46:55.077Z,28.10
2017-11-09T08:49:22.736Z,28.93
2017-11-09T08:51:51.064Z,28.70
2017-11-09T08:54:18.641Z,26.62
2017-11-09T08:56:46.171Z,26.97
2017-11-09T08:59:24.930Z,27.67
2017-11-09T09:04:24.722Z,27.07
2017-11-09T09:06:52.289Z,24.70
2017-11-09T09:09:19.824Z,27.87
2017-11-09T09:11:47.380Z,27.60
2017-11-09T09:14:17.228Z,25.60
2017-11-09T09:16:44.776Z,25.60
2017-11-09T09:19:12.305Z,25.93
2017-11-09T09:21:40.544Z,27.50
2017-11-09T09:27:04.499Z,25.70
2017-11-09T09:29:47.719Z,25.63
2017-11-09T09:32:16.431Z,25.90
2017-11-09T09:34:50.717Z,24.40
2017-11-09T09:37:22.739Z,25.10
2017-11-09T09:39:51.283Z,23.03
2017-11-09T09:42:18.824Z,22.90
2017-11-09T09:44:46.389Z,24.27
2017-11-09T09:47:24.476Z,24.40
2017-11-09T09:52:23.528Z,24.37
2017-11-09T09:54:51.061Z,23.03
2017-11-09T09:57:18.601Z,23.77
2017-11-09T09:59:46.156Z,23.13
2017-11-09T10:02:16.304Z,23.00
2017-11-09T10:04:43.844Z,25.00
2017-11-09T10:07:12.173Z,22.80
2017-11-09T10:09:39.709Z,22.53
2017-11-09T10:12:07.258Z,22.13
2017-11-09T10:14:35.166Z,24.27
2017-11-09T10:17:02.700Z,24.20
2017-11-09T10:19:30.232Z,35.13
2017-11-09T10:21:57.806Z,25.10
2017-11-09T10:24:25.349Z,23.97
2017-11-09T10:26:53.748Z,21.57
2017-11-09T10:29:21.320Z,20.97
2017-11-09T10:31:48.879Z,22.50
2017-11-09T10:34:17.258Z,22.65
2017-11-09T10:36:44.885Z,21.70
2017-11-09T10:39:12.633Z,22.17
2017-11-09T10:41:40.169Z,23.20
2017-11-09T10:44:08.128Z,21.90
2017-11-09T10:46:35.665Z,20.03
2017-11-09T10:49:03.200Z,21.73
2017-11-09T10:51:30.765Z,21.23
2017-11-09T10:53:59.341Z,21.90
2017-11-09T10:56:27.640Z,21.80
2017-11-09T10:58:55.227Z,22.00
2017-11-09T11:01:24.028Z,21.08
2017-11-09T11:03:51.568Z,22.33
2017-11-09T11:06:19.133Z,21.43
2017-11-09T11:08:46.676Z,21.73
2017-11-09T11:11:15.500Z,20.88
2017-11-09T11:13:43.062Z,22.07
2017-11-09T11:16:10.601Z,21.93
2017-11-09T11:18:38.136Z,21.83
2017-11-09T11:21:05.721Z,21.70
2017-11-09T11:23:33.264Z,22.17
2017-11-09T11:26:00.808Z,22.90
2017-11-09T11:28:28.389Z,23.20
2017-11-09T11:30:55.961Z,22.33
2017-11-09T11:33:23.500Z,23.60
2017-11-09T11:35:51.056Z,21.90
2017-11-09T11:38:18.605Z,22.50
2017-11-09T11:40:46.925Z,21.93
2017-11-09T11:43:16.351Z,22.48
2017-11-09T11:45:44.254Z,22.37
2017-11-09T11:48:11.784Z,22.90
2017-11-09T11:50:39.343Z,22.73
2017-11-09T11:53:06.889Z,24.00
2017-11-09T11:55:34.420Z,21.23
2017-11-09T11:58:01.983Z,23.10
2017-11-09T12:00:29.549Z,23.60
2017-11-09T12:02:58.933Z,23.70
2017-11-09T12:05:28.178Z,22.75
2017-11-09T12:07:55.706Z,21.33
2017-11-09T12:10:24.008Z,23.50
2017-11-09T12:12:51.593Z,22.50
2017-11-09T12:15:19.128Z,23.60
2017-11-09T12:17:46.684Z,23.77
2017-11-09T12:20:25.390Z,22.50
2017-11-09T12:25:22.031Z,23.33
2017-11-09T12:27:49.634Z,22.87
2017-11-09T12:30:17.205Z,22.40
2017-11-09T12:32:44.745Z,22.90
2017-11-09T12:35:12.322Z,22.83
2017-11-09T12:37:39.857Z,22.83
2017-11-09T12:40:07.392Z,22.45
2017-11-09T12:42:35.729Z,21.77
2017-11-09T12:45:03.284Z,22.80
2017-11-09T12:47:31.391Z,22.70
2017-11-09T12:49:58.988Z,24.27
2017-11-09T12:52:26.533Z,22.90
2017-11-09T12:54:54.072Z,24.00
2017-11-09T12:57:21.630Z,27.27
2017-11-09T12:59:49.516Z,28.20
2017-11-09T13:02:19.601Z,25.57
2017-11-09T13:04:47.185Z,25.60
2017-11-09T13:07:16.441Z,22.60
2017-11-09T13:09:44.005Z,22.07
2017-11-09T13:12:11.773Z,22.00
2017-11-09T13:14:39.313Z,24.07
2017-11-09T13:17:06.852Z,23.53
2017-11-09T13:19:34.417Z,27.48
2017-11-09T13:22:01.992Z,24.03
2017-11-09T13:24:29.533Z,26.03
2017-11-09T13:26:57.091Z,24.97
2017-11-09T13:29:24.649Z,23.77
2017-11-09T13:31:52.192Z,23.60
2017-11-09T13:34:24.304Z,22.48
2017-11-09T13:36:51.873Z,23.87
2017-11-09T13:39:19.416Z,24.20
2017-11-09T13:41:46.994Z,24.63
2017-11-09T13:44:16.331Z,24.73
2017-11-09T13:46:44.717Z,24.60
2017-11-09T13:49:12.568Z,26.17
2017-11-09T13:51:40.108Z,25.30
2017-11-09T13:54:07.833Z,25.50
2017-11-09T13:56:35.431Z,26.58
2017-11-09T13:59:09.368Z,25.20
2017-11-09T14:01:37.718Z,25.20
2017-11-09T14:04:05.596Z,24.33
2017-11-09T14:06:39.374Z,24.20
2017-11-09T14:09:07.697Z,23.20
2017-11-09T14:11:35.265Z,25.77
2017-11-09T14:14:03.715Z,25.07
2017-11-09T14:16:31.278Z,24.20
2017-11-09T14:18:58.848Z,23.60
2017-11-09T14:21:26.460Z,23.33
2017-11-09T14:23:54.017Z,26.47
2017-11-09T14:26:21.574Z,26.80
2017-11-09T14:28:49.624Z,24.27
2017-11-09T14:31:17.958Z,24.20
2017-11-09T14:33:47.850Z,24.27
2017-11-09T14:36:20.313Z,27.20
2017-11-09T14:38:52.773Z,24.80
2017-11-09T14:41:21.069Z,25.23
2017-11-09T14:43:49.593Z,26.20
2017-11-09T14:46:17.273Z,25.60
2017-11-09T14:48:44.829Z,24.93
2017-11-09T14:51:12.685Z,23.50
2017-11-09T14:53:45.969Z,25.60
2017-11-09T14:56:33.027Z,31.62
2017-11-09T15:01:50.918Z,29.70
2017-11-09T15:04:18.469Z,24.15
2017-11-09T15:06:46.025Z,24.93
2017-11-09T15:09:14.545Z,28.83
2017-11-09T15:11:42.091Z,26.63
2017-11-09T15:14:09.661Z,24.17
2017-11-09T15:16:37.250Z,23.60
2017-11-09T15:19:04.805Z,22.80
2017-11-09T15:21:32.361Z,24.27
2017-11-09T15:23:59.949Z,22.00
2017-11-09T15:26:27.500Z,22.90
2017-11-09T15:28:55.848Z,23.27
2017-11-09T15:31:23.427Z,23.50
2017-11-09T15:33:50.995Z,26.27
2017-11-09T15:36:21.213Z,25.60
2017-11-09T15:38:48.908Z,33.10
2017-11-09T15:41:16.454Z,39.03
2017-11-09T15:43:44.170Z,38.60
2017-11-09T15:46:11.750Z,41.80
2017-11-09T15:48:39.286Z,38.47
2017-11-09T15:51:06.811Z,46.73
2017-11-09T15:53:34.690Z,46.28
2017-11-09T15:56:02.437Z,39.40
2017-11-09T15:58:30.115Z,36.20
2017-11-09T16:00:58.083Z,35.10
2017-11-09T16:03:25.748Z,31.52
2017-11-09T16:05:53.414Z,28.73
2017-11-09T16:08:20.991Z,28.47
2017-11-09T16:10:48.553Z,28.20
2017-11-09T16:13:16.461Z,27.33
2017-11-09T16:15:46.512Z,31.33
2017-11-09T16:18:15.492Z,34.08
2017-11-09T16:20:43.037Z,37.10
2017-11-09T16:23:11.550Z,40.30
2017-11-09T16:25:39.101Z,44.20
2017-11-09T16:28:07.745Z,52.57
2017-11-09T16:30:40.889Z,57.67
2017-11-09T16:33:08.439Z,60.60
2017-11-09T16:35:36.117Z,58.27
2017-11-09T16:38:03.678Z,54.10
2017-11-09T16:40:31.390Z,51.80
2017-11-09T16:42:59.796Z,54.80
2017-11-09T16:45:27.462Z,46.90
2017-11-09T16:47:55.303Z,46.43
2017-11-09T16:50:22.961Z,45.20
2017-11-09T16:52:56.297Z,41.00
2017-11-09T16:55:23.997Z,43.20
2017-11-09T16:57:51.794Z,52.33
2017-11-09T17:00:19.401Z,57.23
2017-11-09T17:02:48.027Z,66.07
2017-11-09T17:05:16.576Z,72.32
2017-11-09T17:07:44.183Z,92.20
2017-11-09T17:10:11.876Z,90.30
2017-11-09T17:12:39.471Z,76.72
2017-11-09T17:15:11.008Z,77.60
2017-11-09T17:17:38.608Z,71.90
2017-11-09T17:20:06.182Z,67.70
2017-11-09T17:22:34.713Z,65.00
2017-11-09T17:25:02.330Z,64.73
2017-11-09T17:27:30.853Z,63.53
2017-11-09T17:29:58.560Z,52.65
2017-11-09T17:32:26.338Z,50.57
2017-11-09T17:34:54.164Z,40.93
2017-11-09T17:37:21.903Z,34.53
2017-11-09T17:39:50.053Z,34.15
2017-11-09T17:42:19.229Z,33.40
2017-11-09T17:44:46.988Z,42.37
2017-11-09T17:47:24.811Z,28.63
2017-11-09T17:53:11.357Z,29.13
2017-11-09T17:55:39.124Z,40.90
2017-11-09T17:58:06.959Z,33.30
2017-11-09T18:00:34.708Z,28.70
2017-11-09T18:03:05.246Z,29.47
2017-11-09T18:05:32.804Z,31.10
2017-11-09T18:08:00.420Z,36.17
2017-11-09T18:10:27.969Z,26.40
2017-11-09T18:12:55.527Z,27.43
2017-11-09T18:15:23.116Z,32.67
2017-11-09T18:17:50.667Z,29.90
2017-11-09T18:20:18.215Z,34.20
2017-11-09T18:22:45.782Z,38.53
2017-11-09T18:25:24.403Z,30.05
2017-11-09T18:34:06.992Z,31.23
2017-11-09T18:36:34.537Z,30.57
2017-11-09T18:39:02.081Z,29.47
2017-11-09T18:41:29.640Z,28.62
2017-11-09T18:43:57.173Z,30.10
2017-11-09T18:46:25.034Z,28.90
2017-11-09T18:48:52.625Z,31.03
2017-11-09T18:51:20.216Z,26.33
2017-11-09T18:53:47.764Z,30.77
2017-11-09T18:56:18.258Z,28.52
2017-11-09T18:58:45.877Z,28.07
2017-11-09T19:01:15.373Z,27.87
2017-11-09T19:03:42.993Z,35.00
2017-11-09T19:06:10.520Z,39.78
2017-11-09T19:08:38.836Z,42.20
2017-11-09T19:11:06.395Z,34.67
2017-11-09T19:13:33.946Z,33.17
2017-11-09T19:16:01.515Z,33.75
2017-11-09T19:18:29.155Z,34.73
2017-11-09T19:20:56.725Z,37.37
2017-11-09T19:23:24.260Z,32.67
2017-11-09T19:25:52.589Z,30.07
2017-11-09T19:28:20.142Z,29.48
2017-11-09T19:30:47.680Z,26.40
2017-11-09T19:33:16.460Z,26.58
2017-11-09T19:35:44.008Z,26.30
2017-11-09T19:38:12.314Z,25.90
2017-11-09T19:40:39.900Z,25.53
2017-11-09T19:43:07.434Z,26.25
2017-11-09T19:45:34.968Z,26.30
2017-11-09T19:48:02.533Z,27.90
2017-11-09T19:50:30.076Z,30.23
2017-11-09T19:52:57.614Z,26.17
2017-11-09T19:55:25.169Z,32.53
2017-11-09T19:57:52.940Z,49.37
2017-11-09T20:00:20.476Z,39.74
2017-11-09T20:02:48.056Z,32.60
2017-11-09T20:05:16.477Z,31.85
2017-11-09T20:07:44.020Z,32.60
2017-11-09T20:10:12.341Z,30.40
2017-11-09T20:12:39.869Z,31.07
2017-11-09T20:15:07.422Z,33.65
2017-11-09T20:17:34.984Z,35.53
2017-11-09T20:20:02.521Z,33.05
2017-11-09T20:22:30.061Z,34.27
2017-11-09T20:24:57.657Z,32.10
2017-11-09T20:27:25.959Z,28.33
2017-11-09T20:29:53.492Z,30.20
2017-11-09T20:32:27.486Z,36.40
2017-11-09T20:34:55.120Z,38.67
2017-11-09T20:37:22.705Z,32.00
2017-11-09T20:39:57.299Z,30.23
2017-11-09T20:42:24.836Z,30.03
2017-11-09T20:44:52.383Z,35.67
2017-11-09T20:47:20.010Z,32.47
2017-11-09T20:49:47.558Z,30.70
2017-11-09T20:52:16.857Z,29.33
2017-11-09T20:54:50.277Z,31.90
2017-11-09T20:57:23.613Z,28.33
2017-11-09T20:59:53.327Z,28.17
2017-11-09T21:02:20.950Z,25.93
2017-11-09T21:04:49.313Z,27.50
2017-11-09T21:07:17.456Z,27.37
2017-11-09T21:09:45.096Z,29.30
2017-11-09T21:12:12.637Z,28.37
2017-11-09T21:14:40.972Z,28.17
2017-11-09T21:17:08.509Z,28.10
2017-11-09T21:19:36.218Z,28.67
2017-11-09T21:22:03.804Z,26.97
2017-11-09T21:24:32.121Z,26.60
2017-11-09T21:26:59.666Z,26.67
2017-11-09T21:29:27.268Z,28.50
2017-11-09T21:31:54.802Z,27.47
2017-11-09T21:34:22.357Z,28.00
2017-11-09T21:36:49.912Z,28.33
2017-11-09T21:39:18.225Z,26.97
2017-11-09T21:41:45.765Z,28.00
2017-11-09T21:44:15.383Z,28.15
2017-11-09T21:46:42.932Z,30.40
2017-11-09T21:49:10.553Z,27.87
2017-11-09T21:51:38.144Z,30.00
2017-11-09T21:54:05.798Z,29.13
2017-11-09T21:56:33.348Z,30.30
2017-11-09T21:59:00.981Z,28.47
2017-11-09T22:01:29.664Z,27.70
2017-11-09T22:03:57.197Z,27.90
2017-11-09T22:06:24.760Z,33.13
2017-11-09T22:08:52.305Z,33.23
2017-11-09T22:11:20.125Z,28.10
2017-11-09T22:13:47.705Z,27.90
2017-11-09T22:16:15.486Z,27.57
2017-11-09T22:18:43.029Z,26.97
2017-11-09T22:21:10.607Z,29.43
2017-11-09T22:23:38.161Z,28.17
2017-11-09T22:26:05.692Z,28.93
2017-11-09T22:28:33.274Z,30.08
2017-11-09T22:31:00.808Z,28.90
2017-11-09T22:33:29.110Z,28.40
2017-11-09T22:35:56.692Z,26.93
2017-11-09T22:38:24.241Z,27.53
2017-11-09T22:40:51.776Z,27.77
2017-11-09T22:43:19.345Z,25.67
2017-11-09T22:45:46.880Z,28.27
2017-11-09T22:48:14.697Z,29.05
2017-11-09T22:50:42.294Z,28.50
2017-11-09T22:53:10.605Z,27.27
2017-11-09T22:55:38.134Z,29.43
2017-11-09T22:58:10.301Z,29.80
2017-11-09T23:00:37.840Z,26.40
2017-11-09T23:03:05.872Z,27.40
2017-11-09T23:05:33.428Z,29.15
2017-11-09T23:08:00.960Z,27.30
2017-11-09T23:10:29.260Z,27.10
2017-11-09T23:12:56.821Z,27.33
2017-11-09T23:15:24.360Z,27.67
2017-11-09T23:17:51.888Z,27.10
2017-11-09T23:20:19.477Z,27.98
2017-11-09T23:22:47.791Z,25.53
2017-11-09T23:25:16.448Z,25.27
2017-11-09T23:27:44.009Z,26.10
2017-11-09T23:30:11.550Z,25.70
2017-11-09T23:32:39.849Z,27.50
2017-11-09T23:35:07.426Z,26.83
2017-11-09T23:37:34.960Z,26.50
2017-11-09T23:40:02.498Z,26.23
2017-11-09T23:42:30.243Z,24.67
2017-11-09T23:44:57.770Z,24.83
2017-11-09T23:47:25.304Z,24.87
2017-11-09T23:49:52.864Z,24.30
2017-11-09T23:52:21.166Z,23.88
2017-11-09T23:54:48.706Z,25.00
2017-11-09T23:57:16.498Z,24.97
2017-11-09T23:59:44.077Z,23.37
